Hauppauge, NY (11788)

1:20 PM EDT on March 29, 2015 (GMT -0400)
KNYHAUPP8 | | Change Station
CLOSE
Current Station
Personal Weather Station
Location: Hauppauge, NY
Elevation: 131 ft
Nearby Weather Stations

Elev 131 ft 40.82 °N, 73.26 °W | Updated 4 seconds ago

Clear
Clear
36.9 °F
Feels Like 31 °F
N
7.0
Wind Variable Wind from ENE
Gusts 15.0 mph

Today
High -- | Low -- °F
--% Chance of Precip.
Yesterday
High -- | Low -- °F
Precip. -- in
6:41 AM 7:14 PM
Waxing Gibbous, 73% visible
Pressure 30.23 in
Visibility 10.0 miles
Clouds Clear
Windchill 31 °F
Dew Point 13 °F
Humidity 37%
Rainfall 0.00 in
Snow Depth Not available.
UV 8 out of 12
Pollen 4.80 out of 12
Air Quality Not available.
Flu Activity Not available.
METAR KISP 291656Z 35010KT 10SM CLR 03/M13 A3023 RMK AO2 SLP237 T00281133

More Conditions Fewer Conditions

Pressure 30.23 in
Visibility 10.0 miles
Clouds Clear
Windchill 31 °F
Dew Point 13 °F
Humidity 37%
Rainfall 0.00 in
Snow Depth Not available.
UV 8 out of 12
Pollen 4.80 out of 12
Air Quality Not available.
Flu Activity Not available.
METAR KISP 291656Z 35010KT 10SM CLR 03/M13 A3023 RMK AO2 SLP237 T00281133

More Conditions Fewer Conditions

10-Day Weather Forecast

Almanac

Astronomy

Mar. 29, 2015 Rise Set
Actual Time
Civil Twilight
Nautical Twilight
Astronomical Twilight
Moon
Length of Visible Light
Length of Day
Tomorrow will be .
, % of the Moon is Illuminated

Today's Extremes

State Highs State Lows

Community

WunderPhotos

Upload Photos

1,809,301 photos uploaded!

WunderBlogs® & News

Nearby

Air Quality

  Air Quality AQ Index Pollutant
Not available.

Snow Depth

Station Depth Elevation

Earthquake Activity

City Distance Mag. Time & Date
Minimum magnitude displayed is 2.5.

Coastal Water Temperatures

Place Temperature

Stations

Nearby Weather Stations

Station Location Temp. Windchill Dew Point Humidity Wind Precip. Elev Updated Type